Time;durP1;ratioP1;P1;durP2;ratioP2;P2;SDS_P1;SDS_P2;PMS_P1;PMS_P2;Temp;Humidity;BMP_temperature;BMP_pressure;BME280_temperature;BME280_humidity;BME280_pressure;Samples;Min_cycle;Max_cycle;Signal;HPM_P1;HPM_P2
2021/05/18 00:00:10;;;;;;;2.43;0.80;;;10.70;93.10;;;;;;5039275;28;20620;-75
2021/05/18 00:02:35;;;;;;;2.07;0.83;;;10.70;93.10;;;;;;5040574;28;20431;-75
2021/05/18 00:05:03;;;;;;;2.17;0.90;;;10.70;93.40;;;;;;5046133;28;20443;-77
2021/05/18 00:07:29;;;;;;;2.07;0.80;;;10.70;93.30;;;;;;5046678;28;20446;-76
2021/05/18 00:12:40;;;;;;;3.23;0.87;;;10.60;93.10;;;;;;5052479;28;20242;-75
2021/05/18 00:15:14;;;;;;;3.03;0.80;;;10.60;93.80;;;;;;5040870;28;21076;-74
2021/05/18 00:17:41;;;;;;;2.20;0.90;;;10.40;94.60;;;;;;5044237;28;20446;-76
2021/05/18 00:20:10;;;;;;;4.13;0.90;;;10.30;94.90;;;;;;5043325;28;20426;-76
2021/05/18 00:22:36;;;;;;;2.30;1.00;;;10.20;95.20;;;;;;5032912;28;20465;-75
2021/05/18 00:25:03;;;;;;;2.00;0.63;;;10.20;95.60;;;;;;5044051;28;20447;-77
2021/05/18 00:27:29;;;;;;;3.80;1.00;;;10.20;95.80;;;;;;5045041;28;20193;-77
2021/05/18 00:29:56;;;;;;;6.13;0.83;;;10.20;95.80;;;;;;5041398;28;20428;-76
2021/05/18 00:32:22;;;;;;;4.10;0.90;;;10.20;95.50;;;;;;5030979;28;20459;-77
2021/05/18 00:34:52;;;;;;;2.93;0.90;;;10.20;95.80;;;;;;5051026;28;20505;-76
2021/05/18 00:37:19;;;;;;;2.57;0.90;;;10.20;95.80;;;;;;5032704;28;20435;-75
2021/05/18 00:39:45;;;;;;;3.07;1.00;;;10.20;95.80;;;;;;5030444;28;20985;-75
2021/05/18 00:42:23;;;;;;;2.20;0.67;;;10.30;95.70;;;;;;5031819;28;20452;-76
2021/05/18 00:44:50;;;;;;;2.70;0.70;;;10.30;95.60;;;;;;5047391;28;20243;-75
2021/05/18 00:47:16;;;;;;;2.20;0.80;;;10.30;95.40;;;;;;5044171;28;20543;-78
2021/05/18 00:49:42;;;;;;;2.70;0.90;;;10.30;95.20;;;;;;5032149;28;20443;-76
2021/05/18 00:52:08;;;;;;;2.40;0.77;;;10.30;95.20;;;;;;5033903;28;20862;-78
2021/05/18 00:55:02;;;;;;;3.43;0.90;;;10.30;95.00;;;;;;5050457;28;20877;-76
2021/05/18 01:00:07;;;;;;;3.13;0.90;;;10.40;95.00;;;;;;5031406;28;20418;-76
2021/05/18 01:02:33;;;;;;;3.37;0.70;;;10.40;94.70;;;;;;5033190;28;20931;-76
2021/05/18 01:05:20;;;;;;;2.50;0.80;;;10.40;94.70;;;;;;5032047;28;20491;-76
2021/05/18 01:07:47;;;;;;;3.50;0.80;;;10.40;94.60;;;;;;5047509;28;21154;-76
2021/05/18 01:10:15;;;;;;;2.63;0.90;;;10.40;94.80;;;;;;5039253;28;20447;-77
2021/05/18 01:12:41;;;;;;;2.77;0.80;;;10.40;94.80;;;;;;5033023;28;20430;-77
2021/05/18 01:15:09;;;;;;;2.43;0.90;;;10.40;94.80;;;;;;5043705;28;21019;-76
2021/05/18 01:17:34;;;;;;;2.40;0.93;;;10.40;94.70;;;;;;5038058;28;20949;-76
2021/05/18 01:20:11;;;;;;;2.10;0.70;;;10.40;94.50;;;;;;5038673;28;20426;-75
2021/05/18 01:22:37;;;;;;;2.60;1.00;;;10.50;94.40;;;;;;5037647;28;20177;-75
2021/05/18 01:25:05;;;;;;;2.77;0.90;;;10.50;94.20;;;;;;5051430;28;20477;-76
2021/05/18 01:27:31;;;;;;;2.53;0.90;;;10.50;94.20;;;;;;5044490;28;20518;-76
2021/05/18 01:29:56;;;;;;;2.63;1.00;;;10.50;94.30;;;;;;5030628;28;20526;-76
2021/05/18 01:32:25;;;;;;;3.37;1.20;;;10.60;94.00;;;;;;5041569;28;20444;-75
2021/05/18 01:34:51;;;;;;;2.13;0.80;;;10.70;93.60;;;;;;5030718;28;20220;-75
2021/05/18 01:37:17;;;;;;;2.97;1.10;;;10.70;93.50;;;;;;5031315;28;21237;-75
2021/05/18 01:39:53;;;;;;;2.83;0.97;;;10.60;93.80;;;;;;5037748;28;20832;-76
2021/05/18 01:45:12;;;;;;;2.83;0.90;;;10.50;95.00;;;;;;5038964;28;20462;-76
2021/05/18 01:47:39;;;;;;;2.43;0.90;;;10.30;95.50;;;;;;5039783;28;20419;-75
2021/05/18 01:50:05;;;;;;;3.67;1.10;;;10.20;96.10;;;;;;5044010;28;20436;-76
2021/05/18 01:52:31;;;;;;;2.57;1.00;;;10.20;96.70;;;;;;5031754;28;20427;-77
2021/05/18 01:54:57;;;;;;;2.50;0.90;;;10.10;96.90;;;;;;5036805;28;20978;-75
2021/05/18 01:57:24;;;;;;;2.77;0.80;;;10.10;97.10;;;;;;5030383;28;20640;-75
2021/05/18 01:59:50;;;;;;;2.47;0.77;;;10.00;97.20;;;;;;5032064;28;20671;-76
2021/05/18 02:02:17;;;;;;;3.70;1.20;;;10.00;97.20;;;;;;5045590;28;20456;-76
2021/05/18 02:04:53;;;;;;;2.27;0.90;;;10.10;97.30;;;;;;5043852;28;21287;-75
2021/05/18 02:07:24;;;;;;;2.50;1.10;;;10.10;97.20;;;;;;5037872;28;20750;-75
2021/05/18 02:09:50;;;;;;;2.83;1.17;;;10.10;97.20;;;;;;5023834;28;20439;-76
2021/05/18 02:12:16;;;;;;;3.77;0.90;;;10.10;97.20;;;;;;5038653;28;20474;-75
2021/05/18 02:14:44;;;;;;;3.17;1.20;;;10.20;97.20;;;;;;5033697;28;20235;-75
2021/05/18 02:25:18;;;;;;;2.23;0.87;;;10.20;96.80;;;;;;5029508;28;20440;-76
2021/05/18 02:27:45;;;;;;;2.10;0.73;;;10.10;96.80;;;;;;5045501;28;20442;-75
2021/05/18 02:30:11;;;;;;;2.50;0.70;;;10.10;96.60;;;;;;5034134;28;20429;-75
2021/05/18 02:32:38;;;;;;;2.40;0.90;;;10.10;95.40;;;;;;5026432;28;20451;-75
2021/05/18 02:35:10;;;;;;;4.73;0.93;;;10.20;95.20;;;;;;5015928;28;20483;-77
2021/05/18 02:37:39;;;;;;;2.50;0.80;;;10.30;95.30;;;;;;5032365;28;20430;-77
2021/05/18 02:40:07;;;;;;;2.53;0.80;;;10.30;95.40;;;;;;5034668;28;20462;-75
2021/05/18 02:42:33;;;;;;;2.70;0.90;;;10.30;95.70;;;;;;5051900;28;20451;-75
2021/05/18 02:45:06;;;;;;;2.30;0.77;;;10.40;95.60;;;;;;5034991;28;20462;-74
2021/05/18 02:50:16;;;;;;;2.50;1.10;;;10.40;94.50;;;;;;5034541;28;20448;-76
2021/05/18 02:52:42;;;;;;;2.40;0.70;;;10.40;94.70;;;;;;5052927;28;20514;-75
2021/05/18 02:55:12;;;;;;;2.27;1.00;;;10.40;95.00;;;;;;5052938;28;20216;-77
2021/05/18 02:57:38;;;;;;;2.40;0.90;;;10.40;95.00;;;;;;5058615;28;20451;-76
2021/05/18 03:00:09;;;;;;;2.40;0.90;;;10.40;95.20;;;;;;5036447;28;20420;-75
2021/05/18 03:02:35;;;;;;;2.30;0.90;;;10.40;95.20;;;;;;5034019;28;20447;-76
2021/05/18 03:05:02;;;;;;;3.30;1.00;;;10.40;94.70;;;;;;5050160;28;20456;-75
2021/05/18 03:07:28;;;;;;;4.43;1.03;;;10.50;94.70;;;;;;5035850;28;20423;-76
2021/05/18 03:09:54;;;;;;;4.13;1.10;;;10.40;95.10;;;;;;5041423;28;20450;-75
2021/05/18 03:12:19;;;;;;;2.40;0.80;;;10.50;95.00;;;;;;5042579;28;20257;-75
2021/05/18 03:14:45;;;;;;;2.60;1.10;;;10.40;95.10;;;;;;5037484;28;21126;-76
2021/05/18 03:17:11;;;;;;;3.20;1.00;;;10.40;95.20;;;;;;5052633;28;20180;-76
2021/05/18 03:19:37;;;;;;;2.63;1.00;;;10.40;95.10;;;;;;5032601;28;20200;-76
2021/05/18 03:22:03;;;;;;;3.23;1.00;;;10.40;94.80;;;;;;5033566;28;20479;-76
2021/05/18 03:24:28;;;;;;;2.53;0.90;;;10.40;94.80;;;;;;5044783;28;20217;-76
2021/05/18 03:26:54;;;;;;;3.13;1.00;;;10.40;95.00;;;;;;5031205;28;20189;-75
2021/05/18 03:29:29;;;;;;;2.67;1.13;;;10.40;95.30;;;;;;5032508;28;20731;-75
2021/05/18 03:34:39;;;;;;;4.10;1.20;;;10.30;95.60;;;;;;5031424;28;21002;-75
2021/05/18 03:39:40;;;;;;;3.33;1.47;;;10.30;95.90;;;;;;5051882;28;20188;-75
2021/05/18 03:42:10;;;;;;;5.60;1.10;;;10.20;96.00;;;;;;5038958;28;20421;-76
2021/05/18 03:44:49;;;;;;;4.13;1.40;;;10.30;96.40;;;;;;5039384;28;20458;-75
2021/05/18 03:53:04;;;;;;;4.63;1.40;;;10.20;95.50;;;;;;5039908;28;20473;-75
2021/05/18 04:17:22;;;;;;;2.57;0.90;;;10.10;94.10;;;;;;5054831;28;20434;-75
2021/05/18 04:52:07;;;;;;;2.43;1.10;;;10.60;91.50;;;;;;5035748;28;20418;-77
2021/05/18 05:00:11;;;;;;;1.90;0.80;;;10.60;91.60;;;;;;5040694;28;20418;-77
2021/05/18 05:03:00;;;;;;;2.13;0.90;;;10.50;92.00;;;;;;5043241;28;20411;-77
2021/05/18 05:08:31;;;;;;;3.20;0.90;;;10.50;92.40;;;;;;5039116;28;20998;-76
2021/05/18 05:16:06;;;;;;;2.13;0.90;;;10.60;92.30;;;;;;5037707;28;20218;-75
2021/05/18 05:18:32;;;;;;;3.03;1.10;;;10.60;92.20;;;;;;5043878;28;20502;-75
2021/05/18 05:20:57;;;;;;;3.03;1.10;;;10.70;91.90;;;;;;5032940;28;20220;-77
2021/05/18 05:23:23;;;;;;;2.13;1.00;;;10.80;91.50;;;;;;5039126;28;20247;-77
2021/05/18 05:25:49;;;;;;;2.10;1.07;;;10.80;91.50;;;;;;5034473;28;20212;-75
2021/05/18 05:28:15;;;;;;;2.23;1.10;;;10.70;91.80;;;;;;5040564;28;20184;-75
2021/05/18 05:30:40;;;;;;;2.20;1.10;;;10.80;92.10;;;;;;5038286;28;20201;-73
2021/05/18 05:33:06;;;;;;;3.70;1.33;;;10.70;93.00;;;;;;5041123;28;20658;-75
2021/05/18 05:35:32;;;;;;;5.53;1.80;;;10.60;93.70;;;;;;5033073;28;20217;-76
2021/05/18 05:37:58;;;;;;;3.63;1.47;;;10.60;94.60;;;;;;5040368;28;20242;-74
2021/05/18 05:40:24;;;;;;;2.67;1.27;;;10.50;95.10;;;;;;5037354;28;20188;-75
2021/05/18 05:42:49;;;;;;;5.03;1.60;;;10.50;95.30;;;;;;5039644;28;20439;-76
2021/05/18 05:45:15;;;;;;;2.60;1.27;;;10.50;95.30;;;;;;5035438;28;20443;-75
2021/05/18 05:47:41;;;;;;;3.00;1.40;;;10.50;95.30;;;;;;5038019;28;20201;-74
2021/05/18 05:50:08;;;;;;;3.40;1.20;;;10.60;95.10;;;;;;5048543;28;20193;-75
2021/05/18 05:52:34;;;;;;;3.13;1.10;;;10.50;95.30;;;;;;5050733;28;20705;-76
2021/05/18 05:55:01;;;;;;;4.10;1.30;;;10.60;95.30;;;;;;5035564;28;20479;-74
2021/05/18 05:57:26;;;;;;;3.40;1.33;;;10.70;94.30;;;;;;5050597;28;20423;-75
2021/05/18 05:59:52;;;;;;;3.00;1.20;;;10.80;94.70;;;;;;5031897;28;21034;-76
2021/05/18 06:02:18;;;;;;;4.20;1.10;;;10.80;95.00;;;;;;5028995;28;20204;-75
2021/05/18 06:04:43;;;;;;;4.00;1.90;;;10.80;95.40;;;;;;5029695;28;20209;-76
2021/05/18 06:07:09;;;;;;;3.07;1.30;;;10.80;95.60;;;;;;5041810;28;20268;-76
2021/05/18 06:09:37;;;;;;;4.30;1.33;;;10.80;96.10;;;;;;5049713;28;20219;-77
2021/05/18 06:14:56;;;;;;;4.07;1.40;;;10.80;96.20;;;;;;5031158;28;20471;-75
2021/05/18 06:46:58;;;;;;;3.23;1.27;;;10.70;98.00;;;;;;5035771;28;20932;-75
2021/05/18 06:49:24;;;;;;;3.37;1.70;;;10.80;97.40;;;;;;5036802;28;20419;-76
2021/05/18 06:51:50;;;;;;;4.13;1.73;;;10.90;96.60;;;;;;5034077;28;20462;-75
2021/05/18 06:54:16;;;;;;;4.37;1.60;;;11.00;96.30;;;;;;5051491;28;21215;-76
2021/05/18 06:56:44;;;;;;;3.63;1.57;;;11.10;95.70;;;;;;5031378;28;20605;-75
2021/05/18 07:01:38;;;;;;;6.07;1.97;;;11.20;95.00;;;;;;5039505;28;20496;-74
2021/05/18 07:04:09;;;;;;;3.63;1.40;;;11.20;95.10;;;;;;5051614;28;20450;-76
2021/05/18 07:09:00;;;;;;;4.07;1.70;;;11.30;94.60;;;;;;5043336;28;20419;-75
2021/05/18 07:11:27;;;;;;;8.57;2.03;;;11.30;94.70;;;;;;5043507;28;20284;-75
2021/05/18 07:13:53;;;;;;;4.03;1.53;;;11.30;93.50;;;;;;5029836;28;20558;-75
2021/05/18 07:16:18;;;;;;;3.33;1.20;;;11.40;94.10;;;;;;5043701;28;20439;-77
2021/05/18 07:18:45;;;;;;;4.53;1.40;;;11.40;94.70;;;;;;5028729;28;20565;-77
2021/05/18 07:21:10;;;;;;;2.30;0.90;;;11.50;94.20;;;;;;5036099;28;20192;-76
2021/05/18 07:23:37;;;;;;;6.67;1.57;;;11.50;92.90;;;;;;5034200;28;20809;-75
2021/05/18 07:26:04;;;;;;;4.77;1.63;;;11.70;92.40;;;;;;5041402;28;20232;-76
2021/05/18 07:28:32;;;;;;;5.17;1.47;;;11.70;91.60;;;;;;5029138;28;20930;-76
2021/05/18 07:30:59;;;;;;;3.50;1.60;;;11.90;91.60;;;;;;5031235;28;20463;-75
2021/05/18 07:33:25;;;;;;;3.50;1.70;;;12.00;91.00;;;;;;5029738;28;20416;-76
2021/05/18 07:35:56;;;;;;;4.10;1.77;;;12.10;90.90;;;;;;5040170;28;20522;-75
2021/05/18 07:38:22;;;;;;;4.70;1.30;;;12.30;89.90;;;;;;5042919;28;20494;-74
2021/05/18 07:40:48;;;;;;;5.63;1.40;;;12.50;89.00;;;;;;5035854;28;20430;-75
2021/05/18 07:43:17;;;;;;;3.67;1.27;;;12.60;85.90;;;;;;5033992;28;20840;-76
2021/05/18 07:45:48;;;;;;;4.50;1.30;;;12.70;87.30;;;;;;5048939;28;20907;-75
2021/05/18 07:48:26;;;;;;;4.13;1.33;;;12.70;87.30;;;;;;5032206;28;20479;-77
2021/05/18 07:59:44;;;;;;;3.87;1.50;;;12.40;87.60;;;;;;5039135;28;20502;-76
2021/05/18 08:07:30;;;;;;;2.80;1.37;;;12.50;89.20;;;;;;5032887;28;20430;-74
2021/05/18 08:12:30;;;;;;;3.90;1.33;;;12.60;87.80;;;;;;5037003;28;20873;-75
2021/05/18 08:15:20;;;;;;;3.93;1.47;;;12.80;86.80;;;;;;5028297;28;20529;-77
2021/05/18 08:55:41;;;;;;;4.33;2.20;;;12.20;91.60;;;;;;5038974;28;20481;-78
2021/05/18 10:34:29;;;;;;;3.90;1.20;;;12.90;84.60;;;;;;5042502;28;20922;-76
2021/05/18 10:36:56;;;;;;;2.20;1.20;;;13.20;84.00;;;;;;5028155;28;20453;-77
2021/05/18 10:39:26;;;;;;;5.00;1.40;;;13.30;84.70;;;;;;5029964;28;20965;-77
2021/05/18 10:41:53;;;;;;;3.93;1.30;;;13.40;80.90;;;;;;5030299;28;20431;-74
2021/05/18 10:44:19;;;;;;;3.00;1.70;;;13.60;80.20;;;;;;5030348;28;20448;-76
2021/05/18 10:46:52;;;;;;;3.93;1.53;;;13.90;81.40;;;;;;5047601;28;20419;-75
2021/05/18 10:49:38;;;;;;;3.20;1.40;;;14.40;80.30;;;;;;5049247;28;20438;-75
2021/05/18 10:52:07;;;;;;;3.80;1.20;;;14.70;74.20;;;;;;5030785;28;20811;-76
2021/05/18 10:54:38;;;;;;;2.60;1.10;;;14.90;72.90;;;;;;5045444;28;20991;-77
2021/05/18 10:57:18;;;;;;;3.20;1.17;;;15.00;71.60;;;;;;5045847;28;20436;-76
2021/05/18 10:59:48;;;;;;;1.83;1.13;;;15.30;68.60;;;;;;5022145;28;20894;-76
2021/05/18 11:02:16;;;;;;;4.80;1.20;;;15.40;66.70;;;;;;5042672;28;20779;-76
2021/05/18 11:04:46;;;;;;;4.20;1.07;;;15.60;64.40;;;;;;5033171;28;20930;-75
2021/05/18 11:07:16;;;;;;;1.40;1.00;;;15.30;62.60;;;;;;5033213;28;20604;-77
2021/05/18 11:09:42;;;;;;;2.80;1.10;;;14.90;63.90;;;;;;5025570;28;20979;-77
2021/05/18 11:12:10;;;;;;;3.83;1.47;;;14.70;63.70;;;;;;5040602;28;20428;-76
2021/05/18 11:14:45;;;;;;;2.40;1.70;;;14.90;65.70;;;;;;5039195;28;20576;-78
2021/05/18 11:17:18;;;;;;;3.30;1.80;;;15.30;65.00;;;;;;5052195;28;20428;-75
2021/05/18 11:19:48;;;;;;;11.13;1.40;;;15.50;64.50;;;;;;5028043;28;20462;-77
2021/05/18 11:22:18;;;;;;;4.60;1.37;;;15.60;63.80;;;;;;5041591;28;20423;-77
2021/05/18 11:24:48;;;;;;;2.73;1.20;;;15.70;62.00;;;;;;5036456;28;21174;-76
2021/05/18 11:27:25;;;;;;;8.83;1.33;;;16.20;60.40;;;;;;5030539;28;20492;-77
2021/05/18 11:29:51;;;;;;;2.70;1.33;;;16.50;59.60;;;;;;5027977;28;21011;-76
2021/05/18 11:32:17;;;;;;;3.10;1.10;;;16.70;59.60;;;;;;5026499;28;20560;-75
2021/05/18 11:34:59;;;;;;;2.03;1.27;;;17.00;57.60;;;;;;5032219;28;20211;-76
2021/05/18 11:37:26;;;;;;;1.33;0.90;;;17.00;54.20;;;;;;5036819;28;20682;-76
2021/05/18 11:40:44;;;;;;;3.40;1.17;;;16.70;53.60;;;;;;5020136;28;20431;-77
2021/05/18 11:43:15;;;;;;;1.73;1.13;;;16.20;55.30;;;;;;5029414;28;20601;-76
2021/05/18 11:45:41;;;;;;;2.03;1.10;;;15.50;58.20;;;;;;5014703;28;20443;-76
2021/05/18 11:48:14;;;;;;;3.37;1.40;;;15.30;61.20;;;;;;5033404;28;20438;-79
2021/05/18 11:50:40;;;;;;;2.60;1.27;;;13.90;76.10;;;;;;5016978;28;20395;-78
2021/05/18 11:53:06;;;;;;;2.20;1.10;;;12.20;85.20;;;;;;5032322;28;20431;-76
2021/05/18 11:55:33;;;;;;;2.00;1.40;;;11.20;87.40;;;;;;5021734;28;21024;-76
2021/05/18 11:58:00;;;;;;;2.73;1.20;;;10.80;90.30;;;;;;5048918;28;20813;-76
2021/05/18 12:00:32;;;;;;;2.40;1.60;;;10.80;92.80;;;;;;5013970;28;20427;-77
2021/05/18 12:03:10;;;;;;;2.60;1.20;;;10.90;94.30;;;;;;5015272;28;20431;-77
2021/05/18 12:05:51;;;;;;;3.63;1.03;;;11.10;94.00;;;;;;5030490;28;20534;-77
2021/05/18 12:08:28;;;;;;;1.37;1.07;;;11.40;93.30;;;;;;5048895;28;20430;-77
2021/05/18 12:10:53;;;;;;;4.00;1.10;;;11.90;92.20;;;;;;5035828;28;20451;-77
2021/05/18 12:13:31;;;;;;;3.83;1.10;;;12.50;91.30;;;;;;5038892;28;20874;-78
2021/05/18 12:16:01;;;;;;;4.80;1.00;;;12.90;84.90;;;;;;5035972;28;20243;-77
2021/05/18 12:18:30;;;;;;;2.43;1.30;;;13.10;86.90;;;;;;5033879;28;20526;-77
2021/05/18 12:21:01;;;;;;;2.30;1.30;;;13.30;82.40;;;;;;5033646;28;20512;-77
2021/05/18 12:23:27;;;;;;;3.20;1.47;;;13.50;84.40;;;;;;5031912;28;20424;-78
2021/05/18 12:26:07;;;;;;;4.30;1.40;;;13.70;81.40;;;;;;5033573;28;20440;-77
2021/05/18 12:28:32;;;;;;;2.00;1.10;;;14.20;74.00;;;;;;5045623;28;20195;-77
2021/05/18 12:30:58;;;;;;;2.23;0.93;;;14.50;67.90;;;;;;5038985;28;20792;-77
2021/05/18 12:33:37;;;;;;;1.67;1.10;;;14.60;72.90;;;;;;5049993;28;20231;-77
2021/05/18 12:36:07;;;;;;;2.00;1.07;;;15.00;73.50;;;;;;5058428;28;20214;-75
2021/05/18 12:38:33;;;;;;;3.10;0.80;;;15.50;70.10;;;;;;5051956;28;20413;-79
2021/05/18 12:41:04;;;;;;;4.33;1.20;;;15.60;62.80;;;;;;5046578;28;20431;-75
2021/05/18 12:43:42;;;;;;;6.00;1.13;;;15.80;65.80;;;;;;5042694;28;20418;-74
2021/05/18 12:46:13;;;;;;;1.90;1.10;;;16.20;64.40;;;;;;5040572;28;20443;-76
2021/05/18 12:48:47;;;;;;;2.53;0.93;;;16.20;61.30;;;;;;5039076;28;20941;-73
2021/05/18 12:51:21;;;;;;;5.27;1.83;;;15.90;59.50;;;;;;5038339;28;20429;-74
2021/05/18 12:53:47;;;;;;;2.30;0.90;;;15.60;62.90;;;;;;5032150;28;20419;-78
2021/05/18 12:56:36;;;;;;;6.00;1.77;;;15.30;63.50;;;;;;5036113;28;20470;-79
2021/05/18 12:59:06;;;;;;;2.33;1.30;;;14.80;66.40;;;;;;5040741;28;20192;-74
2021/05/18 13:01:42;;;;;;;2.13;1.30;;;14.20;73.50;;;;;;5046798;28;20478;-79
2021/05/18 13:04:10;;;;;;;3.23;1.40;;;13.80;78.40;;;;;;5045075;28;20526;-77
2021/05/18 13:06:43;;;;;;;2.27;1.60;;;13.80;80.90;;;;;;5039559;28;20419;-75
2021/05/18 13:09:36;;;;;;;2.20;1.17;;;14.20;80.60;;;;;;5048579;28;20434;-75
2021/05/18 13:12:13;;;;;;;5.00;1.00;;;14.20;74.30;;;;;;5046265;28;20513;-76
2021/05/18 13:14:57;;;;;;;3.87;1.20;;;14.30;77.00;;;;;;5046345;28;20475;-75
2021/05/18 13:17:28;;;;;;;2.10;1.30;;;15.10;76.20;;;;;;5047943;28;20465;-75
2021/05/18 13:19:58;;;;;;;1.60;1.00;;;16.00;73.60;;;;;;5036904;28;20904;-76
2021/05/18 13:22:24;;;;;;;1.70;1.13;;;16.50;64.50;;;;;;5035913;28;20983;-76
2021/05/18 13:27:34;;;;;;;2.33;1.00;;;16.00;64.40;;;;;;5035845;28;20414;-76
2021/05/18 13:30:00;;;;;;;2.70;1.00;;;16.50;63.90;;;;;;5046368;28;20429;-77
2021/05/18 13:32:26;;;;;;;1.60;1.47;;;17.00;65.00;;;;;;5028549;28;20212;-78
2021/05/18 13:34:52;;;;;;;2.50;0.90;;;17.70;59.90;;;;;;5048348;28;20836;-76
2021/05/18 13:37:17;;;;;;;2.10;0.80;;;17.60;57.80;;;;;;5039609;28;20672;-75
2021/05/18 13:39:43;;;;;;;2.40;1.00;;;17.50;57.60;;;;;;5040403;28;20228;-76
2021/05/18 13:42:09;;;;;;;1.90;1.10;;;18.00;56.80;;;;;;5052208;28;20187;-76
2021/05/18 13:44:34;;;;;;;1.93;1.00;;;18.20;55.30;;;;;;5051419;28;20759;-78
2021/05/18 13:47:00;;;;;;;1.47;0.90;;;17.60;52.60;;;;;;5051780;28;20196;-78
2021/05/18 13:49:26;;;;;;;4.40;0.80;;;17.70;49.80;;;;;;5048837;28;20699;-76
2021/05/18 13:51:52;;;;;;;6.53;1.00;;;17.50;51.30;;;;;;5036477;28;20279;-77
2021/05/18 13:54:18;;;;;;;2.97;1.10;;;17.20;52.80;;;;;;5050170;28;20865;-79
2021/05/18 13:56:45;;;;;;;2.17;0.93;;;17.00;53.60;;;;;;5051165;28;20426;-75
2021/05/18 13:59:11;;;;;;;1.10;0.80;;;16.50;57.70;;;;;;5037138;28;20198;-76
2021/05/18 14:01:36;;;;;;;1.00;0.80;;;15.90;62.00;;;;;;5031023;28;20420;-75
2021/05/18 14:04:03;;;;;;;1.93;1.00;;;15.30;65.80;;;;;;5030417;28;20275;-75
2021/05/18 14:06:30;;;;;;;1.40;1.07;;;14.80;68.50;;;;;;5017353;28;20177;-75
2021/05/18 14:08:56;;;;;;;4.83;1.00;;;14.50;71.70;;;;;;5042435;28;20427;-76
2021/05/18 14:11:23;;;;;;;4.30;1.33;;;13.80;71.60;;;;;;5041792;28;20909;-75
2021/05/18 14:13:54;;;;;;;1.90;1.30;;;12.80;82.70;;;;;;5053057;28;20362;-77
2021/05/18 14:16:23;;;;;;;2.57;1.30;;;12.20;85.60;;;;;;5050170;28;20961;-77
2021/05/18 14:18:55;;;;;;;2.23;0.90;;;11.60;88.10;;;;;;5040361;28;20463;-74
2021/05/18 14:21:22;;;;;;;1.57;1.20;;;11.40;89.90;;;;;;5051563;28;20444;-78
2021/05/18 14:26:32;;;;;;;1.70;1.00;;;11.50;90.30;;;;;;5052334;28;21260;-77
2021/05/18 14:28:58;;;;;;;5.53;1.40;;;12.10;91.60;;;;;;5045833;28;20455;-75
2021/05/18 14:31:25;;;;;;;4.57;1.13;;;13.00;89.30;;;;;;5028691;28;20462;-76
2021/05/18 14:33:51;;;;;;;3.53;1.20;;;14.00;85.50;;;;;;5031804;28;20184;-78
2021/05/18 14:36:18;;;;;;;1.80;0.80;;;14.40;77.70;;;;;;5031159;28;20568;-78
2021/05/18 14:38:46;;;;;;;3.73;1.00;;;14.50;75.50;;;;;;5044907;28;20434;-77
2021/05/18 14:56:36;;;;;;;1.87;0.80;;;16.40;61.50;;;;;;5031365;28;20441;-77
2021/05/18 14:59:03;;;;;;;2.03;1.00;;;16.80;57.80;;;;;;5041397;28;20966;-77
2021/05/18 15:01:28;;;;;;;2.53;0.63;;;16.90;59.30;;;;;;5051083;28;20437;-75
2021/05/18 15:03:54;;;;;;;3.30;0.93;;;17.30;57.80;;;;;;5041774;28;20810;-77
2021/05/18 15:06:20;;;;;;;2.50;1.00;;;17.60;57.60;;;;;;5033878;28;20195;-79
2021/05/18 15:08:45;;;;;;;2.50;0.80;;;17.90;55.80;;;;;;5030656;28;20247;-76
2021/05/18 15:11:11;;;;;;;1.00;0.93;;;17.80;53.40;;;;;;5028602;28;20702;-77
2021/05/18 15:13:37;;;;;;;1.70;0.90;;;17.20;56.50;;;;;;5027871;28;20209;-78
2021/05/18 15:16:03;;;;;;;1.37;0.83;;;16.90;56.80;;;;;;5051652;28;20289;-77
2021/05/18 15:18:31;;;;;;;1.07;0.77;;;16.00;59.30;;;;;;5041653;28;20204;-76
2021/05/18 15:20:57;;;;;;;1.80;0.90;;;15.80;63.20;;;;;;5036131;28;20916;-79
2021/05/18 15:23:23;;;;;;;1.30;1.00;;;16.70;59.20;;;;;;5044821;28;20644;-78
2021/05/18 15:25:48;;;;;;;1.20;0.80;;;17.50;55.20;;;;;;5053120;28;20462;-79
2021/05/18 15:28:14;;;;;;;1.20;0.87;;;17.70;55.40;;;;;;5053245;28;20282;-78
2021/05/18 15:30:40;;;;;;;1.40;1.00;;;18.00;55.00;;;;;;5038590;28;20349;-78
2021/05/18 15:33:06;;;;;;;3.20;1.43;;;17.60;54.60;;;;;;5029152;28;20196;-77
2021/05/18 15:35:32;;;;;;;2.20;1.00;;;17.60;54.40;;;;;;5042774;28;20689;-76
2021/05/18 15:37:58;;;;;;;1.50;0.80;;;17.80;54.00;;;;;;5040996;28;20522;-76
2021/05/18 15:40:25;;;;;;;1.63;1.20;;;17.70;53.70;;;;;;5034401;28;20196;-76
2021/05/18 15:42:51;;;;;;;1.40;0.90;;;18.60;53.20;;;;;;5037991;28;20466;-78
2021/05/18 15:45:16;;;;;;;3.70;0.90;;;18.80;51.20;;;;;;5047174;28;20449;-77
2021/05/18 15:47:42;;;;;;;1.83;0.90;;;18.30;51.60;;;;;;5035858;28;20214;-74
2021/05/18 15:50:09;;;;;;;1.60;1.00;;;17.60;54.90;;;;;;5030846;28;20661;-77
2021/05/18 15:52:36;;;;;;;1.10;0.90;;;17.00;55.40;;;;;;5039610;28;20213;-78
2021/05/18 15:55:04;;;;;;;2.07;0.80;;;16.30;59.10;;;;;;5048344;28;20499;-73
2021/05/18 15:57:29;;;;;;;2.00;1.20;;;17.00;58.00;;;;;;5056901;28;20515;-76
2021/05/18 15:59:55;;;;;;;1.77;1.00;;;17.40;56.20;;;;;;5034417;28;20511;-79
2021/05/18 16:02:21;;;;;;;2.30;1.13;;;16.70;57.80;;;;;;5028253;28;20212;-77
2021/05/18 16:04:47;;;;;;;1.70;1.10;;;16.00;59.90;;;;;;5047950;28;20208;-76
2021/05/18 16:07:14;;;;;;;6.30;1.07;;;15.60;61.70;;;;;;5048780;28;20964;-76
2021/05/18 16:09:40;;;;;;;1.60;1.00;;;15.20;62.80;;;;;;5031013;28;20208;-77
2021/05/18 16:12:07;;;;;;;3.33;1.10;;;14.90;64.20;;;;;;5027242;28;20935;-76
2021/05/18 16:14:34;;;;;;;5.93;1.47;;;14.70;65.70;;;;;;5029222;28;20205;-75
2021/05/18 16:17:00;;;;;;;5.40;1.50;;;14.20;71.40;;;;;;5030276;28;20469;-79
2021/05/18 16:19:26;;;;;;;8.80;1.67;;;13.50;76.10;;;;;;5028332;28;20432;-78
2021/05/18 16:21:52;;;;;;;2.03;1.10;;;12.70;78.40;;;;;;5029958;28;20442;-77
2021/05/18 16:24:20;;;;;;;1.57;1.10;;;12.10;81.70;;;;;;5031122;28;20455;-76
2021/05/18 16:26:46;;;;;;;2.33;1.20;;;11.70;84.10;;;;;;5033069;28;20838;-75
2021/05/18 16:29:12;;;;;;;4.40;1.43;;;11.40;85.50;;;;;;5042288;28;20431;-75
2021/05/18 16:31:38;;;;;;;2.90;1.40;;;11.40;88.60;;;;;;5030659;28;20825;-74
2021/05/18 16:34:04;;;;;;;5.53;1.63;;;11.40;90.60;;;;;;5021762;28;20436;-75
2021/05/18 16:36:31;;;;;;;2.60;1.37;;;11.20;91.40;;;;;;5029529;28;20193;-75
2021/05/18 16:38:57;;;;;;;1.60;1.10;;;11.20;91.40;;;;;;5034715;28;20427;-76
2021/05/18 16:41:24;;;;;;;2.10;1.40;;;11.20;90.50;;;;;;5036889;28;20482;-77
2021/05/18 16:43:50;;;;;;;4.00;1.50;;;11.30;91.30;;;;;;5047700;28;20423;-77
2021/05/18 16:46:15;;;;;;;5.83;3.00;;;11.40;91.20;;;;;;5048335;28;20430;-76
2021/05/18 16:48:41;;;;;;;3.63;1.97;;;11.50;92.20;;;;;;5049111;28;20639;-75
2021/05/18 16:51:09;;;;;;;5.00;2.60;;;11.60;92.80;;;;;;5034231;28;20674;-75
2021/05/18 16:53:36;;;;;;;4.40;1.93;;;11.60;93.30;;;;;;5041265;28;20195;-76
2021/05/18 16:56:05;;;;;;;2.60;1.40;;;11.60;94.00;;;;;;5030177;28;20479;-75
2021/05/18 16:58:30;;;;;;;1.87;1.20;;;11.60;94.70;;;;;;5035718;28;20469;-75
2021/05/18 17:00:56;;;;;;;3.07;1.47;;;11.50;95.00;;;;;;5051386;28;20459;-74
2021/05/18 17:03:22;;;;;;;6.07;2.70;;;11.60;94.30;;;;;;5048879;28;20192;-75
2021/05/18 17:05:48;;;;;;;3.70;1.90;;;11.60;93.80;;;;;;5037290;28;20483;-76
2021/05/18 17:08:14;;;;;;;4.37;1.87;;;11.80;94.10;;;;;;5028163;28;20201;-77
2021/05/18 17:10:42;;;;;;;9.83;2.10;;;12.00;94.70;;;;;;5044497;28;20449;-76
2021/05/18 17:13:09;;;;;;;2.73;1.70;;;12.20;95.10;;;;;;5049998;28;20450;-77
2021/05/18 17:15:36;;;;;;;5.67;1.93;;;12.30;95.20;;;;;;5049348;28;20467;-77
2021/05/18 17:18:02;;;;;;;7.47;1.93;;;12.30;94.50;;;;;;5041456;28;20439;-76
2021/05/18 17:20:31;;;;;;;3.50;2.20;;;12.30;93.80;;;;;;5029098;28;20420;-76
2021/05/18 17:22:58;;;;;;;2.53;1.50;;;12.20;93.90;;;;;;5036528;28;20504;-77
2021/05/18 17:25:25;;;;;;;2.17;1.10;;;12.10;93.20;;;;;;5039659;28;20463;-75
2021/05/18 17:27:50;;;;;;;3.23;1.30;;;11.80;89.50;;;;;;5037944;28;20449;-77
2021/05/18 17:30:19;;;;;;;1.57;1.00;;;11.60;89.20;;;;;;5040521;28;20420;-75
2021/05/18 17:32:45;;;;;;;2.00;1.17;;;11.40;89.30;;;;;;5026761;28;20197;-77
2021/05/18 17:35:12;;;;;;;1.50;1.07;;;11.00;90.80;;;;;;5045406;28;21447;-76
2021/05/18 17:37:39;;;;;;;4.20;1.30;;;10.60;92.40;;;;;;5048592;28;20224;-76
2021/05/18 17:40:06;;;;;;;3.20;1.10;;;10.30;93.30;;;;;;5033603;28;20424;-75
2021/05/18 17:42:32;;;;;;;3.43;1.33;;;10.10;93.20;;;;;;5028209;28;20428;-76
2021/05/18 17:45:01;;;;;;;2.53;1.10;;;10.00;94.00;;;;;;5027218;28;20446;-75
2021/05/18 17:47:28;;;;;;;1.90;1.20;;;10.00;93.60;;;;;;5038776;28;20223;-76
2021/05/18 17:49:54;;;;;;;2.57;1.10;;;9.90;93.60;;;;;;5033241;28;20512;-75
2021/05/18 17:52:20;;;;;;;2.30;1.10;;;9.90;93.50;;;;;;5048543;28;20488;-75
2021/05/18 17:54:46;;;;;;;2.53;0.87;;;10.10;90.90;;;;;;5033326;28;20471;-77
2021/05/18 17:57:13;;;;;;;3.13;1.47;;;10.20;92.30;;;;;;5047124;28;20242;-76
2021/05/18 17:59:38;;;;;;;3.27;1.23;;;10.10;93.10;;;;;;5031440;28;20191;-75